KJAN/JAN METAR and TAF weather

Enter ICAO airport designator
Station Type Date Time Source
KJAN METAR 2021/01/17 18:54 UTC NOAA

KJAN 171854Z 24015G26KT 10SM FEW040 FEW070 16/M04 A2998 RMK AO2 PK WND 24026/1853 SLP151 T01561044


Station Type Date Time Source
KJAN Decoded METAR 2021/01/17 18:54 UTC NOAA

Jackson, Jackson International Airport, MS, United States (KJAN) 32-19-11N 090-04-39W 89M
Jan 17, 2021 - 01:54 PM EST / 2021.01.17 1854 UTC
Wind: from the WSW (240 degrees) at 17 MPH (15 KT) gusting to 30 MPH (26 KT):0
Visibility: 10 mile(s):0
Sky conditions: mostly clear
Temperature: 60.1 F (15.6 C)
Dew Point: 24.1 F (-4.4 C)
Relative Humidity: 24%
Pressure (altimeter): 29.98 in. Hg (1015 hPa)
ob: KJAN 171854Z 24015G26KT 10SM FEW040 FEW070 16/M04 A2998 RMK AO2 PK WND 24026/1853 SLP151 T01561044
cycle: 19

Station Type Date Time Source
KJAN TAF 2021/01/17 18:33 UTC NOAA

TAF KJAN 171731Z 1718/1818 25011G19KT P6SM FEW250
FM172300 24008KT P6SM SCT250

Example: see airport list